Terminal Aerodrome Forecast
Issued by NWS Corpus Christi, TX

Home | Current Version | Previous Version | Text Only | Print | Product List | Glossary On
Versions: 1 2 3 4 5 6 7 8 9 10 11 12 13 14 15 16 17 18 19 20
000
FTUS44 KCRP 281134 CCA
TAFCRP
TAF COR
KCRP 281134Z 2812/0112 17012KT 6SM BR OVC010 WS020/18045KT
      TEMPO 2812/2814 5SM BR OVC007
     FM281400 18012G21KT P6SM BKN015
     FM281600 17018G25KT P6SM BKN025
     FM281900 16020G27KT P6SM SCT035 BKN250
     FM010300 15015KT P6SM SCT015 BKN250
     FM010700 17010KT 5SM BR OVC008=

USA.gov is the U.S. government's official web portal to all federal, state and local government web resources and services.